sensor_id;sensor_type;location;lat;lon;timestamp;P1;durP1;ratioP1;P2;durP2;ratioP2
49678;SDS011;35570;48.218;16.326;2023-07-30T00:02:04;1.38;;;1.25;;
49678;SDS011;35570;48.218;16.326;2023-07-30T00:04:30;2.00;;;1.40;;
49678;SDS011;35570;48.218;16.326;2023-07-30T00:06:55;1.30;;;1.20;;
49678;SDS011;35570;48.218;16.326;2023-07-30T00:09:22;1.80;;;1.30;;
49678;SDS011;35570;48.218;16.326;2023-07-30T00:11:47;1.67;;;1.30;;
49678;SDS011;35570;48.218;16.326;2023-07-30T00:14:13;1.50;;;1.25;;
49678;SDS011;35570;48.218;16.326;2023-07-30T00:16:39;1.27;;;1.17;;
49678;SDS011;35570;48.218;16.326;2023-07-30T00:19:04;2.47;;;1.48;;
49678;SDS011;35570;48.218;16.326;2023-07-30T00:21:30;1.48;;;1.15;;
49678;SDS011;35570;48.218;16.326;2023-07-30T00:23:55;1.58;;;1.38;;
49678;SDS011;35570;48.218;16.326;2023-07-30T00:26:22;2.38;;;1.40;;
49678;SDS011;35570;48.218;16.326;2023-07-30T00:28:51;2.53;;;1.70;;
49678;SDS011;35570;48.218;16.326;2023-07-30T00:31:16;1.65;;;1.52;;
49678;SDS011;35570;48.218;16.326;2023-07-30T00:33:42;1.67;;;1.40;;
49678;SDS011;35570;48.218;16.326;2023-07-30T00:36:07;1.90;;;1.48;;
49678;SDS011;35570;48.218;16.326;2023-07-30T00:38:33;1.30;;;1.20;;
49678;SDS011;35570;48.218;16.326;2023-07-30T00:40:59;1.85;;;1.50;;
49678;SDS011;35570;48.218;16.326;2023-07-30T00:43:24;1.33;;;1.23;;
49678;SDS011;35570;48.218;16.326;2023-07-30T00:45:50;1.77;;;1.40;;
49678;SDS011;35570;48.218;16.326;2023-07-30T00:48:15;1.88;;;1.60;;
49678;SDS011;35570;48.218;16.326;2023-07-30T00:50:41;2.08;;;1.40;;
49678;SDS011;35570;48.218;16.326;2023-07-30T00:53:08;1.80;;;1.10;;
49678;SDS011;35570;48.218;16.326;2023-07-30T00:55:36;2.15;;;1.50;;
49678;SDS011;35570;48.218;16.326;2023-07-30T00:58:02;1.85;;;1.60;;
49678;SDS011;35570;48.218;16.326;2023-07-30T01:00:28;2.05;;;1.40;;
49678;SDS011;35570;48.218;16.326;2023-07-30T01:02:55;1.85;;;1.30;;
49678;SDS011;35570;48.218;16.326;2023-07-30T01:05:21;2.33;;;1.30;;
49678;SDS011;35570;48.218;16.326;2023-07-30T01:07:46;1.77;;;1.40;;
49678;SDS011;35570;48.218;16.326;2023-07-30T01:10:12;1.48;;;1.25;;
49678;SDS011;35570;48.218;16.326;2023-07-30T01:12:37;2.08;;;1.40;;
49678;SDS011;35570;48.218;16.326;2023-07-30T01:15:04;1.63;;;1.48;;
49678;SDS011;35570;48.218;16.326;2023-07-30T01:17:31;1.80;;;1.30;;
49678;SDS011;35570;48.218;16.326;2023-07-30T01:19:57;1.40;;;1.20;;
49678;SDS011;35570;48.218;16.326;2023-07-30T01:22:23;2.45;;;1.30;;
49678;SDS011;35570;48.218;16.326;2023-07-30T01:24:49;1.63;;;1.48;;
49678;SDS011;35570;48.218;16.326;2023-07-30T01:27:25;1.45;;;1.05;;
49678;SDS011;35570;48.218;16.326;2023-07-30T01:29:55;2.05;;;1.40;;
49678;SDS011;35570;48.218;16.326;2023-07-30T01:32:31;1.92;;;1.45;;
49678;SDS011;35570;48.218;16.326;2023-07-30T01:34:57;3.83;;;1.58;;
49678;SDS011;35570;48.218;16.326;2023-07-30T01:37:24;2.13;;;1.60;;
49678;SDS011;35570;48.218;16.326;2023-07-30T01:39:51;1.52;;;1.40;;
49678;SDS011;35570;48.218;16.326;2023-07-30T01:42:17;2.47;;;1.45;;
49678;SDS011;35570;48.218;16.326;2023-07-30T01:44:43;1.40;;;1.27;;
49678;SDS011;35570;48.218;16.326;2023-07-30T01:47:08;1.95;;;1.35;;
49678;SDS011;35570;48.218;16.326;2023-07-30T01:49:34;1.88;;;1.27;;
49678;SDS011;35570;48.218;16.326;2023-07-30T01:52:00;2.33;;;1.25;;
49678;SDS011;35570;48.218;16.326;2023-07-30T01:54:25;1.50;;;1.40;;
49678;SDS011;35570;48.218;16.326;2023-07-30T01:56:51;1.80;;;1.30;;
49678;SDS011;35570;48.218;16.326;2023-07-30T01:59:18;2.35;;;1.23;;
49678;SDS011;35570;48.218;16.326;2023-07-30T02:01:43;1.80;;;1.60;;
49678;SDS011;35570;48.218;16.326;2023-07-30T02:04:09;1.90;;;1.35;;
49678;SDS011;35570;48.218;16.326;2023-07-30T02:06:35;2.00;;;1.40;;
49678;SDS011;35570;48.218;16.326;2023-07-30T02:09:00;1.83;;;1.30;;
49678;SDS011;35570;48.218;16.326;2023-07-30T02:11:26;1.30;;;1.20;;
49678;SDS011;35570;48.218;16.326;2023-07-30T02:13:52;3.88;;;1.40;;
49678;SDS011;35570;48.218;16.326;2023-07-30T02:16:18;1.63;;;1.40;;
49678;SDS011;35570;48.218;16.326;2023-07-30T02:18:44;1.48;;;1.20;;
49678;SDS011;35570;48.218;16.326;2023-07-30T02:21:09;1.98;;;1.50;;
49678;SDS011;35570;48.218;16.326;2023-07-30T02:23:35;1.63;;;1.45;;
49678;SDS011;35570;48.218;16.326;2023-07-30T02:26:01;1.33;;;1.20;;
49678;SDS011;35570;48.218;16.326;2023-07-30T02:28:26;1.55;;;1.35;;
49678;SDS011;35570;48.218;16.326;2023-07-30T02:30:52;1.35;;;1.23;;
49678;SDS011;35570;48.218;16.326;2023-07-30T02:33:17;2.50;;;1.35;;
49678;SDS011;35570;48.218;16.326;2023-07-30T02:35:43;1.83;;;1.23;;
49678;SDS011;35570;48.218;16.326;2023-07-30T02:38:09;2.97;;;1.30;;
49678;SDS011;35570;48.218;16.326;2023-07-30T02:40:35;2.55;;;1.45;;
49678;SDS011;35570;48.218;16.326;2023-07-30T02:43:00;1.77;;;1.35;;
49678;SDS011;35570;48.218;16.326;2023-07-30T02:45:26;1.83;;;1.40;;
49678;SDS011;35570;48.218;16.326;2023-07-30T02:47:52;3.47;;;1.40;;
49678;SDS011;35570;48.218;16.326;2023-07-30T02:50:17;1.83;;;1.30;;
49678;SDS011;35570;48.218;16.326;2023-07-30T02:52:43;1.95;;;1.38;;
49678;SDS011;35570;48.218;16.326;2023-07-30T02:55:09;1.65;;;1.40;;
49678;SDS011;35570;48.218;16.326;2023-07-30T02:57:34;2.15;;;1.42;;
49678;SDS011;35570;48.218;16.326;2023-07-30T03:00:00;1.63;;;1.40;;
49678;SDS011;35570;48.218;16.326;2023-07-30T03:02:26;1.45;;;1.20;;
49678;SDS011;35570;48.218;16.326;2023-07-30T03:04:51;2.20;;;1.50;;
49678;SDS011;35570;48.218;16.326;2023-07-30T03:07:17;1.38;;;1.27;;
49678;SDS011;35570;48.218;16.326;2023-07-30T03:09:44;2.55;;;1.10;;
49678;SDS011;35570;48.218;16.326;2023-07-30T03:12:10;1.40;;;1.30;;
49678;SDS011;35570;48.218;16.326;2023-07-30T03:14:36;2.13;;;1.30;;
49678;SDS011;35570;48.218;16.326;2023-07-30T03:17:01;4.45;;;1.38;;
49678;SDS011;35570;48.218;16.326;2023-07-30T03:19:27;3.72;;;1.60;;
49678;SDS011;35570;48.218;16.326;2023-07-30T03:21:52;2.00;;;1.35;;
49678;SDS011;35570;48.218;16.326;2023-07-30T03:24:18;1.65;;;1.30;;
49678;SDS011;35570;48.218;16.326;2023-07-30T03:26:44;3.08;;;1.38;;
49678;SDS011;35570;48.218;16.326;2023-07-30T03:29:09;2.17;;;1.60;;
49678;SDS011;35570;48.218;16.326;2023-07-30T03:31:35;2.15;;;1.38;;
49678;SDS011;35570;48.218;16.326;2023-07-30T03:34:00;2.33;;;1.40;;
49678;SDS011;35570;48.218;16.326;2023-07-30T03:36:26;2.10;;;1.40;;
49678;SDS011;35570;48.218;16.326;2023-07-30T03:38:52;2.13;;;1.25;;
49678;SDS011;35570;48.218;16.326;2023-07-30T03:41:17;1.75;;;1.50;;
49678;SDS011;35570;48.218;16.326;2023-07-30T03:43:43;1.40;;;1.20;;
49678;SDS011;35570;48.218;16.326;2023-07-30T03:46:08;2.58;;;1.60;;
49678;SDS011;35570;48.218;16.326;2023-07-30T03:48:34;1.20;;;1.10;;
49678;SDS011;35570;48.218;16.326;2023-07-30T03:50:59;1.40;;;1.25;;
49678;SDS011;35570;48.218;16.326;2023-07-30T03:53:25;1.58;;;1.30;;
49678;SDS011;35570;48.218;16.326;2023-07-30T03:55:51;2.13;;;1.50;;
49678;SDS011;35570;48.218;16.326;2023-07-30T03:58:16;1.50;;;1.40;;
49678;SDS011;35570;48.218;16.326;2023-07-30T04:00:42;1.33;;;1.23;;
49678;SDS011;35570;48.218;16.326;2023-07-30T04:03:07;1.55;;;1.27;;
49678;SDS011;35570;48.218;16.326;2023-07-30T04:05:33;1.60;;;1.50;;
49678;SDS011;35570;48.218;16.326;2023-07-30T04:07:59;2.75;;;1.45;;
49678;SDS011;35570;48.218;16.326;2023-07-30T04:10:25;1.90;;;1.52;;
49678;SDS011;35570;48.218;16.326;2023-07-30T04:12:50;1.90;;;1.50;;
49678;SDS011;35570;48.218;16.326;2023-07-30T04:15:16;1.77;;;1.48;;
49678;SDS011;35570;48.218;16.326;2023-07-30T04:17:42;1.85;;;1.52;;
49678;SDS011;35570;48.218;16.326;2023-07-30T04:20:08;1.98;;;1.45;;
49678;SDS011;35570;48.218;16.326;2023-07-30T04:22:37;2.25;;;1.83;;
49678;SDS011;35570;48.218;16.326;2023-07-30T04:25:03;1.67;;;1.40;;
49678;SDS011;35570;48.218;16.326;2023-07-30T04:27:29;1.70;;;1.48;;
49678;SDS011;35570;48.218;16.326;2023-07-30T04:29:55;2.15;;;1.40;;
49678;SDS011;35570;48.218;16.326;2023-07-30T04:32:20;1.95;;;1.40;;
49678;SDS011;35570;48.218;16.326;2023-07-30T04:34:46;2.40;;;1.20;;
49678;SDS011;35570;48.218;16.326;2023-07-30T04:37:12;2.92;;;1.45;;
49678;SDS011;35570;48.218;16.326;2023-07-30T04:39:37;1.90;;;1.17;;
49678;SDS011;35570;48.218;16.326;2023-07-30T04:42:03;2.08;;;1.50;;
49678;SDS011;35570;48.218;16.326;2023-07-30T04:44:29;3.35;;;1.67;;
49678;SDS011;35570;48.218;16.326;2023-07-30T04:46:55;2.13;;;1.60;;
49678;SDS011;35570;48.218;16.326;2023-07-30T04:49:21;1.90;;;1.42;;
49678;SDS011;35570;48.218;16.326;2023-07-30T04:51:46;1.85;;;1.65;;
49678;SDS011;35570;48.218;16.326;2023-07-30T04:54:12;1.75;;;1.35;;
49678;SDS011;35570;48.218;16.326;2023-07-30T04:56:37;1.60;;;1.33;;
49678;SDS011;35570;48.218;16.326;2023-07-30T04:59:03;1.52;;;1.40;;
49678;SDS011;35570;48.218;16.326;2023-07-30T05:01:29;1.65;;;1.20;;
49678;SDS011;35570;48.218;16.326;2023-07-30T05:03:56;1.70;;;1.55;;
49678;SDS011;35570;48.218;16.326;2023-07-30T05:06:22;1.63;;;1.35;;
49678;SDS011;35570;48.218;16.326;2023-07-30T05:08:48;2.85;;;1.83;;
49678;SDS011;35570;48.218;16.326;2023-07-30T05:11:14;1.52;;;1.42;;
49678;SDS011;35570;48.218;16.326;2023-07-30T05:13:39;1.48;;;1.33;;
49678;SDS011;35570;48.218;16.326;2023-07-30T05:16:05;1.92;;;1.55;;
49678;SDS011;35570;48.218;16.326;2023-07-30T05:18:31;1.60;;;1.33;;
49678;SDS011;35570;48.218;16.326;2023-07-30T05:20:56;2.20;;;1.38;;
49678;SDS011;35570;48.218;16.326;2023-07-30T05:23:22;1.92;;;1.48;;
49678;SDS011;35570;48.218;16.326;2023-07-30T05:25:48;1.92;;;1.50;;
49678;SDS011;35570;48.218;16.326;2023-07-30T05:28:13;1.65;;;1.42;;
49678;SDS011;35570;48.218;16.326;2023-07-30T05:30:39;1.80;;;1.60;;
49678;SDS011;35570;48.218;16.326;2023-07-30T05:33:05;1.60;;;1.50;;
49678;SDS011;35570;48.218;16.326;2023-07-30T05:35:30;2.45;;;1.40;;
49678;SDS011;35570;48.218;16.326;2023-07-30T05:37:56;2.30;;;1.52;;
49678;SDS011;35570;48.218;16.326;2023-07-30T05:40:22;1.40;;;1.20;;
49678;SDS011;35570;48.218;16.326;2023-07-30T05:42:47;1.67;;;1.45;;
49678;SDS011;35570;48.218;16.326;2023-07-30T05:45:13;1.70;;;1.52;;
49678;SDS011;35570;48.218;16.326;2023-07-30T05:47:39;3.85;;;1.50;;
49678;SDS011;35570;48.218;16.326;2023-07-30T05:50:05;3.95;;;1.40;;
49678;SDS011;35570;48.218;16.326;2023-07-30T05:52:32;1.90;;;1.70;;
49678;SDS011;35570;48.218;16.326;2023-07-30T05:54:58;1.50;;;1.38;;
49678;SDS011;35570;48.218;16.326;2023-07-30T05:57:24;1.80;;;1.42;;
49678;SDS011;35570;48.218;16.326;2023-07-30T05:59:50;3.05;;;1.70;;
49678;SDS011;35570;48.218;16.326;2023-07-30T06:02:16;2.00;;;1.60;;
49678;SDS011;35570;48.218;16.326;2023-07-30T06:04:42;2.05;;;1.60;;
49678;SDS011;35570;48.218;16.326;2023-07-30T06:07:08;1.52;;;1.40;;
49678;SDS011;35570;48.218;16.326;2023-07-30T06:09:34;1.98;;;1.77;;
49678;SDS011;35570;48.218;16.326;2023-07-30T06:11:59;1.67;;;1.58;;
49678;SDS011;35570;48.218;16.326;2023-07-30T06:14:25;1.95;;;1.70;;
49678;SDS011;35570;48.218;16.326;2023-07-30T06:16:52;1.95;;;1.48;;
49678;SDS011;35570;48.218;16.326;2023-07-30T06:19:18;2.42;;;1.50;;
49678;SDS011;35570;48.218;16.326;2023-07-30T06:21:44;2.50;;;1.27;;
49678;SDS011;35570;48.218;16.326;2023-07-30T06:24:10;1.63;;;1.40;;
49678;SDS011;35570;48.218;16.326;2023-07-30T06:26:35;1.50;;;1.30;;
49678;SDS011;35570;48.218;16.326;2023-07-30T06:29:01;1.88;;;1.70;;
49678;SDS011;35570;48.218;16.326;2023-07-30T06:31:27;1.90;;;1.63;;
49678;SDS011;35570;48.218;16.326;2023-07-30T06:33:52;2.15;;;1.58;;
49678;SDS011;35570;48.218;16.326;2023-07-30T06:36:18;1.50;;;1.40;;
49678;SDS011;35570;48.218;16.326;2023-07-30T06:38:44;1.70;;;1.48;;
49678;SDS011;35570;48.218;16.326;2023-07-30T06:41:09;1.67;;;1.58;;
49678;SDS011;35570;48.218;16.326;2023-07-30T06:43:35;2.08;;;1.40;;
49678;SDS011;35570;48.218;16.326;2023-07-30T06:46:00;2.03;;;1.38;;
49678;SDS011;35570;48.218;16.326;2023-07-30T06:48:26;3.22;;;1.58;;
49678;SDS011;35570;48.218;16.326;2023-07-30T06:50:52;1.83;;;1.45;;
49678;SDS011;35570;48.218;16.326;2023-07-30T06:53:18;1.30;;;1.15;;
49678;SDS011;35570;48.218;16.326;2023-07-30T06:55:43;2.78;;;1.42;;
49678;SDS011;35570;48.218;16.326;2023-07-30T06:58:10;2.17;;;0.93;;
49678;SDS011;35570;48.218;16.326;2023-07-30T07:00:36;1.40;;;1.00;;
49678;SDS011;35570;48.218;16.326;2023-07-30T07:03:01;1.95;;;1.13;;
49678;SDS011;35570;48.218;16.326;2023-07-30T07:05:27;0.93;;;0.70;;
49678;SDS011;35570;48.218;16.326;2023-07-30T07:07:53;0.77;;;0.77;;
49678;SDS011;35570;48.218;16.326;2023-07-30T07:10:18;1.55;;;1.00;;
49678;SDS011;35570;48.218;16.326;2023-07-30T07:12:44;0.90;;;0.70;;
49678;SDS011;35570;48.218;16.326;2023-07-30T07:15:09;1.02;;;0.93;;
49678;SDS011;35570;48.218;16.326;2023-07-30T07:17:35;0.90;;;0.70;;
49678;SDS011;35570;48.218;16.326;2023-07-30T07:20:01;1.52;;;1.00;;
49678;SDS011;35570;48.218;16.326;2023-07-30T07:22:29;2.90;;;0.90;;
49678;SDS011;35570;48.218;16.326;2023-07-30T07:24:55;0.98;;;0.80;;
49678;SDS011;35570;48.218;16.326;2023-07-30T07:27:21;0.98;;;0.73;;
49678;SDS011;35570;48.218;16.326;2023-07-30T07:29:49;2.40;;;1.30;;
49678;SDS011;35570;48.218;16.326;2023-07-30T07:32:15;1.67;;;1.20;;
49678;SDS011;35570;48.218;16.326;2023-07-30T07:34:41;1.50;;;0.90;;
49678;SDS011;35570;48.218;16.326;2023-07-30T07:37:06;1.63;;;1.02;;
49678;SDS011;35570;48.218;16.326;2023-07-30T07:39:32;0.80;;;0.77;;
49678;SDS011;35570;48.218;16.326;2023-07-30T07:41:58;2.00;;;0.98;;
49678;SDS011;35570;48.218;16.326;2023-07-30T07:44:24;1.10;;;0.90;;
49678;SDS011;35570;48.218;16.326;2023-07-30T07:46:49;1.10;;;1.00;;
49678;SDS011;35570;48.218;16.326;2023-07-30T07:49:15;1.38;;;1.00;;
49678;SDS011;35570;48.218;16.326;2023-07-30T07:51:41;1.40;;;1.10;;
49678;SDS011;35570;48.218;16.326;2023-07-30T07:54:06;1.00;;;0.90;;
49678;SDS011;35570;48.218;16.326;2023-07-30T07:56:32;1.08;;;0.93;;
49678;SDS011;35570;48.218;16.326;2023-07-30T07:58:58;1.88;;;1.10;;
49678;SDS011;35570;48.218;16.326;2023-07-30T08:01:24;1.20;;;1.08;;
49678;SDS011;35570;48.218;16.326;2023-07-30T08:03:50;2.80;;;1.10;;
49678;SDS011;35570;48.218;16.326;2023-07-30T08:06:16;1.00;;;0.90;;
49678;SDS011;35570;48.218;16.326;2023-07-30T08:08:41;1.80;;;1.35;;
49678;SDS011;35570;48.218;16.326;2023-07-30T08:11:07;1.65;;;1.10;;
49678;SDS011;35570;48.218;16.326;2023-07-30T08:13:35;1.60;;;1.50;;
49678;SDS011;35570;48.218;16.326;2023-07-30T08:16:01;1.85;;;1.13;;
49678;SDS011;35570;48.218;16.326;2023-07-30T08:18:27;1.30;;;1.13;;
49678;SDS011;35570;48.218;16.326;2023-07-30T08:20:53;1.95;;;1.25;;
49678;SDS011;35570;48.218;16.326;2023-07-30T08:23:19;1.45;;;1.35;;
49678;SDS011;35570;48.218;16.326;2023-07-30T08:25:44;1.73;;;1.38;;
49678;SDS011;35570;48.218;16.326;2023-07-30T08:28:10;3.05;;;1.10;;
49678;SDS011;35570;48.218;16.326;2023-07-30T08:30:36;2.72;;;1.40;;
49678;SDS011;35570;48.218;16.326;2023-07-30T08:33:01;2.08;;;1.20;;
49678;SDS011;35570;48.218;16.326;2023-07-30T08:35:27;1.92;;;1.48;;
49678;SDS011;35570;48.218;16.326;2023-07-30T08:37:53;1.50;;;1.20;;
49678;SDS011;35570;48.218;16.326;2023-07-30T08:40:20;1.30;;;1.17;;
49678;SDS011;35570;48.218;16.326;2023-07-30T08:42:48;1.77;;;1.42;;
49678;SDS011;35570;48.218;16.326;2023-07-30T08:45:17;3.22;;;1.77;;
49678;SDS011;35570;48.218;16.326;2023-07-30T08:47:43;3.53;;;1.50;;
49678;SDS011;35570;48.218;16.326;2023-07-30T08:50:10;1.85;;;1.50;;
49678;SDS011;35570;48.218;16.326;2023-07-30T08:52:35;1.73;;;1.40;;
49678;SDS011;35570;48.218;16.326;2023-07-30T08:55:02;1.48;;;1.38;;
49678;SDS011;35570;48.218;16.326;2023-07-30T08:57:29;2.55;;;1.60;;
49678;SDS011;35570;48.218;16.326;2023-07-30T09:00:02;1.48;;;1.30;;
49678;SDS011;35570;48.218;16.326;2023-07-30T09:02:34;1.50;;;1.20;;
49678;SDS011;35570;48.218;16.326;2023-07-30T09:05:00;1.85;;;1.50;;
49678;SDS011;35570;48.218;16.326;2023-07-30T09:07:29;1.67;;;1.35;;
49678;SDS011;35570;48.218;16.326;2023-07-30T09:09:55;1.88;;;1.38;;
49678;SDS011;35570;48.218;16.326;2023-07-30T09:12:25;1.98;;;1.20;;
49678;SDS011;35570;48.218;16.326;2023-07-30T09:14:53;2.17;;;1.45;;
49678;SDS011;35570;48.218;16.326;2023-07-30T09:17:19;2.88;;;1.40;;
49678;SDS011;35570;48.218;16.326;2023-07-30T09:19:45;2.50;;;1.20;;
49678;SDS011;35570;48.218;16.326;2023-07-30T09:22:20;1.52;;;1.25;;
49678;SDS011;35570;48.218;16.326;2023-07-30T09:24:48;1.45;;;1.33;;
49678;SDS011;35570;48.218;16.326;2023-07-30T09:27:14;1.25;;;1.00;;
49678;SDS011;35570;48.218;16.326;2023-07-30T09:30:06;1.92;;;1.20;;
49678;SDS011;35570;48.218;16.326;2023-07-30T09:32:32;1.92;;;1.23;;
49678;SDS011;35570;48.218;16.326;2023-07-30T09:35:09;1.63;;;1.20;;
49678;SDS011;35570;48.218;16.326;2023-07-30T09:37:39;2.60;;;1.30;;
49678;SDS011;35570;48.218;16.326;2023-07-30T09:40:06;1.35;;;1.10;;
49678;SDS011;35570;48.218;16.326;2023-07-30T09:42:33;1.23;;;0.90;;
49678;SDS011;35570;48.218;16.326;2023-07-30T09:45:03;1.85;;;1.20;;
49678;SDS011;35570;48.218;16.326;2023-07-30T09:47:30;1.50;;;1.02;;
49678;SDS011;35570;48.218;16.326;2023-07-30T09:49:56;1.45;;;1.13;;
49678;SDS011;35570;48.218;16.326;2023-07-30T09:52:21;1.52;;;1.05;;
49678;SDS011;35570;48.218;16.326;2023-07-30T09:54:48;1.20;;;0.95;;
49678;SDS011;35570;48.218;16.326;2023-07-30T09:57:17;1.50;;;0.80;;
49678;SDS011;35570;48.218;16.326;2023-07-30T09:59:43;2.15;;;1.52;;
49678;SDS011;35570;48.218;16.326;2023-07-30T10:02:08;2.10;;;1.40;;
49678;SDS011;35570;48.218;16.326;2023-07-30T10:04:37;1.73;;;1.23;;
49678;SDS011;35570;48.218;16.326;2023-07-30T10:07:12;1.15;;;0.98;;
49678;SDS011;35570;48.218;16.326;2023-07-30T10:09:42;1.02;;;0.90;;
49678;SDS011;35570;48.218;16.326;2023-07-30T10:12:15;2.55;;;1.00;;
49678;SDS011;35570;48.218;16.326;2023-07-30T10:14:43;1.65;;;1.23;;
49678;SDS011;35570;48.218;16.326;2023-07-30T10:17:09;1.33;;;1.23;;
49678;SDS011;35570;48.218;16.326;2023-07-30T10:19:36;2.00;;;0.90;;
49678;SDS011;35570;48.218;16.326;2023-07-30T10:24:40;1.00;;;0.70;;
49678;SDS011;35570;48.218;16.326;2023-07-30T10:27:06;1.23;;;1.05;;
49678;SDS011;35570;48.218;16.326;2023-07-30T10:29:35;1.48;;;0.82;;
49678;SDS011;35570;48.218;16.326;2023-07-30T10:32:06;1.30;;;0.88;;
49678;SDS011;35570;48.218;16.326;2023-07-30T10:34:45;1.60;;;1.13;;
49678;SDS011;35570;48.218;16.326;2023-07-30T10:37:17;1.33;;;0.90;;
49678;SDS011;35570;48.218;16.326;2023-07-30T10:39:43;1.20;;;0.90;;
49678;SDS011;35570;48.218;16.326;2023-07-30T10:42:12;1.38;;;0.90;;
49678;SDS011;35570;48.218;16.326;2023-07-30T10:44:39;2.10;;;1.20;;
49678;SDS011;35570;48.218;16.326;2023-07-30T10:47:09;7.10;;;1.55;;
49678;SDS011;35570;48.218;16.326;2023-07-30T10:49:38;3.05;;;1.60;;
49678;SDS011;35570;48.218;16.326;2023-07-30T10:52:11;4.57;;;1.70;;
49678;SDS011;35570;48.218;16.326;2023-07-30T10:54:37;4.50;;;1.83;;
49678;SDS011;35570;48.218;16.326;2023-07-30T10:57:03;4.55;;;1.98;;
49678;SDS011;35570;48.218;16.326;2023-07-30T10:59:39;1.33;;;1.20;;
49678;SDS011;35570;48.218;16.326;2023-07-30T11:02:05;3.53;;;1.40;;
49678;SDS011;35570;48.218;16.326;2023-07-30T11:04:33;2.03;;;1.38;;
49678;SDS011;35570;48.218;16.326;2023-07-30T11:06:59;2.45;;;1.50;;
49678;SDS011;35570;48.218;16.326;2023-07-30T11:09:26;4.07;;;1.42;;
49678;SDS011;35570;48.218;16.326;2023-07-30T11:11:55;3.15;;;1.55;;
49678;SDS011;35570;48.218;16.326;2023-07-30T11:14:22;1.67;;;1.42;;
49678;SDS011;35570;48.218;16.326;2023-07-30T11:16:54;3.83;;;1.33;;
49678;SDS011;35570;48.218;16.326;2023-07-30T11:19:23;2.50;;;1.40;;
49678;SDS011;35570;48.218;16.326;2023-07-30T11:21:51;1.35;;;1.00;;
49678;SDS011;35570;48.218;16.326;2023-07-30T11:24:18;2.05;;;1.10;;
49678;SDS011;35570;48.218;16.326;2023-07-30T11:26:45;2.55;;;1.35;;
49678;SDS011;35570;48.218;16.326;2023-07-30T11:29:23;1.50;;;1.40;;
49678;SDS011;35570;48.218;16.326;2023-07-30T11:31:49;1.63;;;1.30;;
49678;SDS011;35570;48.218;16.326;2023-07-30T11:34:14;1.23;;;0.80;;
49678;SDS011;35570;48.218;16.326;2023-07-30T11:36:41;1.30;;;0.85;;
49678;SDS011;35570;48.218;16.326;2023-07-30T11:39:08;1.20;;;1.00;;
49678;SDS011;35570;48.218;16.326;2023-07-30T11:41:34;3.38;;;1.33;;
49678;SDS011;35570;48.218;16.326;2023-07-30T11:44:00;1.58;;;1.20;;
49678;SDS011;35570;48.218;16.326;2023-07-30T11:46:26;1.35;;;1.05;;
49678;SDS011;35570;48.218;16.326;2023-07-30T11:48:53;1.88;;;1.02;;
49678;SDS011;35570;48.218;16.326;2023-07-30T11:51:34;1.07;;;0.77;;
49678;SDS011;35570;48.218;16.326;2023-07-30T11:54:00;1.42;;;1.00;;
49678;SDS011;35570;48.218;16.326;2023-07-30T11:58:57;1.48;;;0.80;;
49678;SDS011;35570;48.218;16.326;2023-07-30T12:03:56;1.90;;;1.20;;
49678;SDS011;35570;48.218;16.326;2023-07-30T12:06:23;1.77;;;1.00;;
49678;SDS011;35570;48.218;16.326;2023-07-30T12:08:49;1.35;;;0.70;;
49678;SDS011;35570;48.218;16.326;2023-07-30T12:11:15;2.08;;;0.70;;
49678;SDS011;35570;48.218;16.326;2023-07-30T12:13:43;0.90;;;0.75;;
49678;SDS011;35570;48.218;16.326;2023-07-30T12:16:13;0.90;;;0.65;;
49678;SDS011;35570;48.218;16.326;2023-07-30T12:18:39;0.65;;;0.60;;
49678;SDS011;35570;48.218;16.326;2023-07-30T12:21:05;1.70;;;1.20;;
49678;SDS011;35570;48.218;16.326;2023-07-30T12:23:36;0.98;;;0.82;;
49678;SDS011;35570;48.218;16.326;2023-07-30T12:26:03;1.77;;;1.00;;
49678;SDS011;35570;48.218;16.326;2023-07-30T12:28:32;1.17;;;0.80;;
49678;SDS011;35570;48.218;16.326;2023-07-30T12:31:01;1.10;;;0.90;;
49678;SDS011;35570;48.218;16.326;2023-07-30T12:33:27;1.80;;;1.25;;
49678;SDS011;35570;48.218;16.326;2023-07-30T12:35:53;2.42;;;0.80;;
49678;SDS011;35570;48.218;16.326;2023-07-30T12:38:18;2.05;;;1.10;;
49678;SDS011;35570;48.218;16.326;2023-07-30T12:40:44;1.40;;;1.15;;
49678;SDS011;35570;48.218;16.326;2023-07-30T12:43:09;3.20;;;1.88;;
49678;SDS011;35570;48.218;16.326;2023-07-30T12:45:35;1.73;;;1.60;;
49678;SDS011;35570;48.218;16.326;2023-07-30T12:48:01;0.90;;;0.70;;
49678;SDS011;35570;48.218;16.326;2023-07-30T12:50:27;1.48;;;0.70;;
49678;SDS011;35570;48.218;16.326;2023-07-30T12:52:52;0.98;;;0.75;;
49678;SDS011;35570;48.218;16.326;2023-07-30T12:55:18;1.15;;;0.70;;
49678;SDS011;35570;48.218;16.326;2023-07-30T12:57:44;0.88;;;0.80;;
49678;SDS011;35570;48.218;16.326;2023-07-30T13:00:10;1.50;;;0.60;;
49678;SDS011;35570;48.218;16.326;2023-07-30T13:02:36;0.60;;;0.60;;
49678;SDS011;35570;48.218;16.326;2023-07-30T13:05:03;0.95;;;0.65;;
49678;SDS011;35570;48.218;16.326;2023-07-30T13:07:29;1.02;;;0.55;;
49678;SDS011;35570;48.218;16.326;2023-07-30T13:10:14;1.15;;;0.93;;
49678;SDS011;35570;48.218;16.326;2023-07-30T13:12:40;1.00;;;0.80;;
49678;SDS011;35570;48.218;16.326;2023-07-30T13:15:07;1.38;;;0.88;;
49678;SDS011;35570;48.218;16.326;2023-07-30T13:17:34;1.52;;;1.13;;
49678;SDS011;35570;48.218;16.326;2023-07-30T13:20:00;1.70;;;1.60;;
49678;SDS011;35570;48.218;16.326;2023-07-30T13:22:26;1.00;;;0.63;;
49678;SDS011;35570;48.218;16.326;2023-07-30T13:24:53;0.82;;;0.50;;
49678;SDS011;35570;48.218;16.326;2023-07-30T13:27:19;0.50;;;0.50;;
49678;SDS011;35570;48.218;16.326;2023-07-30T13:29:46;0.60;;;0.47;;
49678;SDS011;35570;48.218;16.326;2023-07-30T13:32:14;1.02;;;0.77;;
49678;SDS011;35570;48.218;16.326;2023-07-30T13:34:40;0.73;;;0.60;;
49678;SDS011;35570;48.218;16.326;2023-07-30T13:37:07;1.35;;;0.60;;
49678;SDS011;35570;48.218;16.326;2023-07-30T13:39:33;1.38;;;0.70;;
49678;SDS011;35570;48.218;16.326;2023-07-30T13:42:00;1.42;;;0.82;;
49678;SDS011;35570;48.218;16.326;2023-07-30T13:44:26;1.00;;;0.70;;
49678;SDS011;35570;48.218;16.326;2023-07-30T13:46:53;1.10;;;0.70;;
49678;SDS011;35570;48.218;16.326;2023-07-30T13:49:19;1.42;;;0.68;;
49678;SDS011;35570;48.218;16.326;2023-07-30T13:51:46;1.40;;;0.63;;
49678;SDS011;35570;48.218;16.326;2023-07-30T13:54:12;0.90;;;0.80;;
49678;SDS011;35570;48.218;16.326;2023-07-30T13:56:40;0.90;;;0.60;;
49678;SDS011;35570;48.218;16.326;2023-07-30T13:59:06;0.52;;;0.50;;
49678;SDS011;35570;48.218;16.326;2023-07-30T14:01:33;1.20;;;0.50;;
49678;SDS011;35570;48.218;16.326;2023-07-30T14:03:59;0.90;;;0.60;;
49678;SDS011;35570;48.218;16.326;2023-07-30T14:06:25;0.80;;;0.60;;
49678;SDS011;35570;48.218;16.326;2023-07-30T14:08:52;0.68;;;0.43;;
49678;SDS011;35570;48.218;16.326;2023-07-30T14:11:18;0.90;;;0.70;;
49678;SDS011;35570;48.218;16.326;2023-07-30T14:13:45;1.52;;;1.30;;
49678;SDS011;35570;48.218;16.326;2023-07-30T14:16:11;1.45;;;1.08;;
49678;SDS011;35570;48.218;16.326;2023-07-30T14:18:38;1.05;;;0.75;;
49678;SDS011;35570;48.218;16.326;2023-07-30T14:21:04;1.80;;;0.73;;
49678;SDS011;35570;48.218;16.326;2023-07-30T14:23:31;0.65;;;0.50;;
49678;SDS011;35570;48.218;16.326;2023-07-30T14:25:57;1.20;;;1.10;;
49678;SDS011;35570;48.218;16.326;2023-07-30T14:28:23;2.53;;;1.70;;
49678;SDS011;35570;48.218;16.326;2023-07-30T14:30:49;1.90;;;1.10;;
49678;SDS011;35570;48.218;16.326;2023-07-30T14:33:15;2.13;;;0.90;;
49678;SDS011;35570;48.218;16.326;2023-07-30T14:35:41;3.05;;;0.77;;
49678;SDS011;35570;48.218;16.326;2023-07-30T14:38:06;1.00;;;0.90;;